Check out our new BloomSky Weather System.

Active alerts


No alerts


Thunder radar  blitzortung!


Rain radar more information rain snow radar


Visit our other weather sites:

Template documentation
and downloads

And another site



Weather Underground History page Text

Daily Summary for January 31, 2018 Units:  English    Metric   Both
« Previous Day
Next Day »
Daily Weekly Monthly Yearly Custom
  High: Low: Average:
Temperature: TemperatureF °F 37.6 °F 55.8 °F
Dew Point: DewpointF °F 34.5 °F 47.4 °F
Humidity: Humidity % 49 % 75 %
Wind Speed: WindSpeedMPH mph 0.0 mph 3.4 mph
Wind Gust: WindSpeedGustMPH mph - -
Wind:- - South
Pressure: PressureIn in 29.97 in -
Precipitation: 0.00 in    
Historical Graphs
 
 
Tabular Data for January 31, 2018
Time Temperature Dew Point Pressure Wind Wind Speed Wind Gust Humidity Rainfall Rate (Hourly)
TemperatureF °F DewpointF °F PressureIn in Calm     Humidity % HourlyPrecipIn in
00:03 43.5 °F 36.1 °F 30.28 in Calm   1.0 mph 75 % 0.00 in
00:08 43.5 °F 36.1 °F 30.29 in SE 1.0 mph 2.0 mph 75 % 0.00 in
00:13 43.5 °F 36.1 °F 30.28 in Calm   2.0 mph 75 % 0.00 in
00:18 43.3 °F 36.3 °F 30.28 in SE 1.0 mph 2.0 mph 76 % 0.00 in
00:23 43.5 °F 36.5 °F 30.28 in Calm   2.0 mph 76 % 0.00 in
00:28 43.5 °F 36.9 °F 30.27 in Calm   2.0 mph 77 % 0.00 in
00:33 43.5 °F 36.9 °F 30.27 in ESE 1.0 mph 2.0 mph 77 % 0.00 in
00:38 43.5 °F 36.9 °F 30.27 in Calm   1.0 mph 77 % 0.00 in
00:43 43.3 °F 36.7 °F 30.27 in Calm   1.0 mph 77 % 0.00 in
00:48 43.0 °F 36.7 °F 30.27 in Calm   1.0 mph 78 % 0.00 in
00:53 42.6 °F 36.3 °F 30.27 in Calm   1.0 mph 78 % 0.00 in
00:58 42.3 °F 36.1 °F 30.26 in Calm   1.0 mph 79 % 0.00 in
01:03 42.1 °F 36.0 °F 30.26 in Calm   1.0 mph 79 % 0.00 in
01:08 41.7 °F 36.0 °F 30.26 in Calm   1.0 mph 80 % 0.00 in
01:13 41.4 °F 35.6 °F 30.25 in Calm   1.0 mph 80 % 0.00 in
01:18 41.2 °F 35.8 °F 30.25 in Calm   1.0 mph 81 % 0.00 in
01:23 40.8 °F 35.8 °F 30.25 in Calm   1.0 mph 82 % 0.00 in
01:28 40.6 °F 35.6 °F 30.25 in Calm   1.0 mph 82 % 0.00 in
01:33 40.3 °F 35.2 °F 30.25 in Calm   1.0 mph 82 % 0.00 in
01:38 39.6 °F 34.5 °F 30.26 in Calm     82 % 0.00 in
01:43 39.2 °F 34.5 °F 30.25 in Calm     83 % 0.00 in
01:48 39.2 °F 34.7 °F 30.25 in Calm     84 % 0.00 in
01:53 39.4 °F 35.6 °F 30.25 in Calm     86 % 0.00 in
01:58 39.4 °F 35.2 °F 30.26 in Calm     85 % 0.00 in
02:03 39.0 °F 34.9 °F 30.26 in Calm     85 % 0.00 in
02:08 38.7 °F 34.5 °F 30.26 in Calm     85 % 0.00 in
02:13 38.3 °F 34.5 °F 30.25 in Calm     86 % 0.00 in
02:18 38.5 °F 34.7 °F 30.25 in Calm     86 % 0.00 in
02:23 38.5 °F 34.9 °F 30.25 in Calm     87 % 0.00 in
02:28 38.5 °F 34.9 °F 30.25 in Calm     87 % 0.00 in
02:33 38.7 °F 35.4 °F 30.24 in Calm     88 % 0.00 in
02:38 38.8 °F 36.0 °F 30.24 in Calm   1.0 mph 89 % 0.00 in
02:43 39.0 °F 36.1 °F 30.24 in Calm   1.0 mph 89 % 0.00 in
02:48 39.6 °F 36.9 °F 30.24 in Calm   1.0 mph 90 % 0.00 in
02:53 39.6 °F 36.9 °F 30.23 in Calm     90 % 0.00 in
02:58 39.6 °F 36.9 °F 30.23 in Calm     90 % 0.00 in
03:03 39.6 °F 36.9 °F 30.23 in Calm     90 % 0.00 in
03:08 39.6 °F 36.9 °F 30.23 in Calm     90 % 0.00 in
03:13 39.6 °F 36.9 °F 30.23 in Calm     90 % 0.00 in
03:18 39.4 °F 37.0 °F 30.23 in Calm     91 % 0.00 in
03:23 39.0 °F 36.3 °F 30.22 in Calm     90 % 0.00 in
03:28 39.0 °F 36.7 °F 30.22 in Calm     91 % 0.00 in
03:33 38.7 °F 36.3 °F 30.22 in Calm     91 % 0.00 in
03:38 38.7 °F 36.3 °F 30.22 in Calm     91 % 0.00 in
03:43 38.8 °F 36.7 °F 30.22 in Calm     92 % 0.00 in
03:48 38.8 °F 36.7 °F 30.21 in Calm     92 % 0.00 in
03:53 38.5 °F 36.1 °F 30.21 in Calm     91 % 0.00 in
03:58 38.3 °F 36.0 °F 30.21 in Calm     91 % 0.00 in
04:03 37.9 °F 35.6 °F 30.21 in Calm     91 % 0.00 in
04:08 37.6 °F 35.4 °F 30.21 in Calm     92 % 0.00 in
04:13 37.6 °F 35.4 °F 30.21 in Calm     92 % 0.00 in
04:18 37.9 °F 36.1 °F 30.21 in Calm     93 % 0.00 in
04:23 38.3 °F 36.5 °F 30.20 in Calm     93 % 0.00 in
04:28 38.7 °F 36.9 °F 30.20 in Calm   1.0 mph 93 % 0.00 in
04:33 38.8 °F 37.2 °F 30.20 in Calm   1.0 mph 94 % 0.00 in
04:38 38.8 °F 37.0 °F 30.20 in Calm   1.0 mph 93 % 0.00 in
04:43 39.0 °F 37.2 °F 30.20 in Calm   1.0 mph 93 % 0.00 in
04:48 38.8 °F 37.0 °F 30.20 in Calm   1.0 mph 93 % 0.00 in
04:53 39.0 °F 37.4 °F 30.20 in Calm   1.0 mph 94 % 0.00 in
04:58 38.8 °F 37.0 °F 30.20 in Calm     93 % 0.00 in
05:03 38.8 °F 37.0 °F 30.20 in Calm     93 % 0.00 in
05:08 38.7 °F 36.9 °F 30.20 in Calm     93 % 0.00 in
05:13 38.7 °F 36.9 °F 30.20 in Calm     93 % 0.00 in
05:18 38.7 °F 37.0 °F 30.20 in Calm     94 % 0.00 in
05:23 38.5 °F 36.9 °F 30.19 in Calm     94 % 0.00 in
05:28 38.5 °F 36.9 °F 30.20 in Calm     94 % 0.00 in
05:33 38.5 °F 36.9 °F 30.19 in Calm     94 % 0.00 in
05:38 38.5 °F 36.9 °F 30.19 in Calm     94 % 0.00 in
05:44 38.1 °F 36.5 °F 30.19 in Calm     94 % 0.00 in
05:49 37.9 °F 36.3 °F 30.20 in Calm     94 % 0.00 in
05:53 38.3 °F 37.0 °F 30.20 in Calm     95 % 0.00 in
05:58 38.7 °F 37.4 °F 30.20 in Calm   1.0 mph 95 % 0.00 in
06:04 38.7 °F 37.4 °F 30.20 in Calm   1.0 mph 95 % 0.00 in
06:09 38.7 °F 37.4 °F 30.20 in Calm   1.0 mph 95 % 0.00 in
06:14 38.7 °F 37.4 °F 30.19 in Calm   1.0 mph 95 % 0.00 in
06:19 38.7 °F 37.4 °F 30.20 in Calm   1.0 mph 95 % 0.00 in
06:24 38.8 °F 37.6 °F 30.19 in Calm   1.0 mph 95 % 0.00 in
06:29 38.7 °F 37.4 °F 30.19 in Calm   1.0 mph 95 % 0.00 in
06:34 38.7 °F 37.4 °F 30.19 in Calm   1.0 mph 95 % 0.00 in
06:39 38.7 °F 37.4 °F 30.19 in Calm   1.0 mph 95 % 0.00 in
06:44 38.5 °F 37.2 °F 30.19 in Calm   1.0 mph 95 % 0.00 in
06:49 38.7 °F 37.4 °F 30.19 in Calm   1.0 mph 95 % 0.00 in
06:54 38.7 °F 37.4 °F 30.19 in Calm   1.0 mph 95 % 0.00 in
06:59 38.8 °F 37.6 °F 30.19 in Calm   1.0 mph 95 % 0.00 in
07:04 39.0 °F 37.8 °F 30.19 in Calm   1.0 mph 95 % 0.00 in
07:09 39.4 °F 38.1 °F 30.19 in Calm   1.0 mph 95 % 0.00 in
07:14 39.6 °F 38.5 °F 30.19 in Calm   1.0 mph 96 % 0.00 in
07:19 39.7 °F 38.7 °F 30.19 in Calm   1.0 mph 96 % 0.00 in
07:24 39.7 °F 38.5 °F 30.19 in Calm   1.0 mph 95 % 0.00 in
07:29 39.7 °F 38.7 °F 30.19 in Calm   1.0 mph 96 % 0.00 in
07:34 39.9 °F 38.8 °F 30.19 in Calm   1.0 mph 96 % 0.00 in
07:39 40.1 °F 39.0 °F 30.19 in Calm   1.0 mph 96 % 0.00 in
07:44 40.5 °F 39.4 °F 30.19 in Calm   1.0 mph 96 % 0.00 in
07:49 40.8 °F 39.7 °F 30.19 in Calm   1.0 mph 96 % 0.00 in
07:54 41.5 °F 40.5 °F 30.19 in Calm   1.0 mph 96 % 0.00 in
07:59 42.3 °F 41.5 °F 30.19 in Calm   1.0 mph 97 % 0.00 in
08:04 43.3 °F 42.6 °F 30.19 in Calm   1.0 mph 97 % 0.00 in
08:09 44.4 °F 43.7 °F 30.19 in Calm   1.0 mph 97 % 0.00 in
08:14 45.9 °F 45.3 °F 30.19 in Calm   1.0 mph 98 % 0.00 in
08:19 46.9 °F 46.4 °F 30.19 in Calm   2.0 mph 98 % 0.00 in
08:24 47.7 °F 46.9 °F 30.19 in SSW 1.0 mph 3.0 mph 97 % 0.00 in
08:29 48.4 °F 47.5 °F 30.19 in Calm   3.0 mph 97 % 0.00 in
08:34 48.9 °F 47.8 °F 30.19 in ESE 1.0 mph 3.0 mph 96 % 0.00 in
08:39 49.6 °F 48.2 °F 30.18 in SSE 1.0 mph 3.0 mph 95 % 0.00 in
08:44 50.4 °F 48.7 °F 30.19 in ESE 2.0 mph 4.0 mph 94 % 0.00 in
08:49 51.3 °F 49.3 °F 30.18 in SSE 2.0 mph 4.0 mph 93 % 0.00 in
08:54 52.2 °F 49.6 °F 30.18 in SE 1.0 mph 4.0 mph 91 % 0.00 in
08:59 53.1 °F 49.8 °F 30.18 in SSE 2.0 mph 4.0 mph 89 % 0.00 in
09:04 54.0 °F 50.2 °F 30.18 in SSE 6.0 mph 6.0 mph 87 % 0.00 in
09:09 54.7 °F 50.2 °F 30.18 in SE 2.0 mph 7.0 mph 85 % 0.00 in
09:14 55.6 °F 50.9 °F 30.18 in SE 4.0 mph 7.0 mph 84 % 0.00 in
09:19 56.5 °F 51.4 °F 30.18 in SSE 5.0 mph 8.0 mph 83 % 0.00 in
09:24 57.0 °F 51.6 °F 30.18 in SSE 2.0 mph 8.0 mph 82 % 0.00 in
09:29 57.6 °F 51.4 °F 30.18 in SSE 4.0 mph 8.0 mph 80 % 0.00 in
09:34 58.3 °F 51.8 °F 30.18 in SE 7.0 mph 9.0 mph 79 % 0.00 in
09:39 58.6 °F 51.4 °F 30.18 in SE 6.0 mph 11.0 mph 77 % 0.00 in
09:44 59.0 °F 51.8 °F 30.18 in ESE 4.0 mph 12.0 mph 77 % 0.00 in
09:49 59.4 °F 51.8 °F 30.19 in SSE 4.0 mph 12.0 mph 76 % 0.00 in
09:54 59.7 °F 52.2 °F 30.18 in South 4.0 mph 12.0 mph 76 % 0.00 in
09:59 60.1 °F 52.2 °F 30.18 in South 5.0 mph 11.0 mph 75 % 0.00 in
10:04 60.6 °F 52.3 °F 30.18 in SE 5.0 mph 10.0 mph 74 % 0.00 in
10:09 61.2 °F 52.5 °F 30.19 in SE 2.0 mph 10.0 mph 73 % 0.00 in
10:14 62.1 °F 52.9 °F 30.18 in SE 8.0 mph 10.0 mph 72 % 0.00 in
10:19 62.2 °F 52.7 °F 30.18 in SSE 6.0 mph 12.0 mph 71 % 0.00 in
10:24 62.4 °F 52.9 °F 30.18 in South 7.0 mph 12.0 mph 71 % 0.00 in
10:29 63.0 °F 53.1 °F 30.18 in South 6.0 mph 12.0 mph 70 % 0.00 in
10:34 63.1 °F 52.9 °F 30.18 in SSE 6.0 mph 17.0 mph 69 % 0.00 in
10:39 63.3 °F 53.1 °F 30.18 in SSW 8.0 mph 17.0 mph 69 % 0.00 in
10:44 63.7 °F 52.9 °F 30.18 in SSW 10.0 mph 17.0 mph 68 % 0.00 in
10:49 64.0 °F 52.5 °F 30.18 in SSW 6.0 mph 17.0 mph 66 % 0.00 in
10:54 64.2 °F 53.1 °F 30.17 in SSW 6.0 mph 14.0 mph 67 % 0.00 in
10:59 64.6 °F 52.5 °F 30.17 in SSW 7.0 mph 14.0 mph 65 % 0.00 in
11:04 64.9 °F 52.5 °F 30.17 in SW 10.0 mph 14.0 mph 64 % 0.00 in
11:09 65.1 °F 53.1 °F 30.17 in SSE 5.0 mph 14.0 mph 65 % 0.00 in
11:14 65.7 °F 53.2 °F 30.17 in South 6.0 mph 12.0 mph 64 % 0.00 in
11:19 65.8 °F 53.2 °F 30.17 in South 7.0 mph 12.0 mph 64 % 0.00 in
11:24 66.2 °F 53.2 °F 30.17 in SSE 6.0 mph 11.0 mph 63 % 0.00 in
11:29 66.4 °F 52.9 °F 30.16 in South 6.0 mph 11.0 mph 62 % 0.00 in
11:34 66.6 °F 52.7 °F 30.16 in SE 10.0 mph 12.0 mph 61 % 0.00 in
11:39 66.6 °F 52.2 °F 30.15 in South 5.0 mph 14.0 mph 60 % 0.00 in
11:44 66.7 °F 52.3 °F 30.15 in South 7.0 mph 14.0 mph 60 % 0.00 in
11:49 66.7 °F 52.9 °F 30.15 in SSE 5.0 mph 14.0 mph 61 % 0.00 in
11:54 66.9 °F 52.2 °F 30.14 in SSW 9.0 mph 15.0 mph 59 % 0.00 in
11:59 67.6 °F 52.9 °F 30.14 in SSW 6.0 mph 15.0 mph 59 % 0.00 in
12:04 67.8 °F 52.0 °F 30.13 in SSE 7.0 mph 15.0 mph 57 % 0.00 in
12:09 67.8 °F 52.5 °F 30.13 in SW 7.0 mph 14.0 mph 58 % 0.00 in
12:14 68.2 °F 53.2 °F 30.13 in SW 9.0 mph 14.0 mph 59 % 0.00 in
12:19 68.5 °F 53.2 °F 30.12 in SSE 4.0 mph 14.0 mph 58 % 0.00 in
12:24 68.9 °F 52.5 °F 30.12 in SE 9.0 mph 14.0 mph 56 % 0.00 in
12:29 68.9 °F 52.5 °F 30.12 in South 7.0 mph 14.0 mph 56 % 0.00 in
12:34 69.1 °F 52.7 °F 30.12 in SSW 8.0 mph 14.0 mph 56 % 0.00 in
12:39 69.3 °F 52.3 °F 30.11 in SE 8.0 mph 14.0 mph 55 % 0.00 in
12:44 69.4 °F 53.1 °F 30.11 in SSE 5.0 mph 13.0 mph 56 % 0.00 in
12:49 69.6 °F 52.2 °F 30.10 in SSE 9.0 mph 13.0 mph 54 % 0.00 in
12:54 69.6 °F 52.2 °F 30.10 in SE 5.0 mph 15.0 mph 54 % 0.00 in
12:59 70.0 °F 52.0 °F 30.09 in SE 7.0 mph 15.0 mph 53 % 0.00 in
13:04 69.8 °F 52.3 °F 30.09 in SE 7.0 mph 15.0 mph 54 % 0.00 in
13:09 69.6 °F 52.7 °F 30.09 in SE 5.0 mph 13.0 mph 55 % 0.00 in
13:14 70.2 °F 52.7 °F 30.08 in South 3.0 mph 13.0 mph 54 % 0.00 in
13:19 70.3 °F 52.9 °F 30.08 in SSW 8.0 mph 13.0 mph 54 % 0.00 in
13:24 70.5 °F 52.5 °F 30.07 in SSW 9.0 mph 13.0 mph 53 % 0.00 in
13:29 70.5 °F 52.5 °F 30.07 in SE 6.0 mph 13.0 mph 53 % 0.00 in
13:34 70.9 °F 52.9 °F 30.06 in SW 4.0 mph 15.0 mph 53 % 0.00 in
13:39 70.9 °F 52.3 °F 30.06 in SSW 10.0 mph 15.0 mph 52 % 0.00 in
13:44 70.9 °F 52.9 °F 30.06 in SSE 6.0 mph 15.0 mph 53 % 0.00 in
13:49 71.1 °F 52.0 °F 30.06 in SW 5.0 mph 16.0 mph 51 % 0.00 in
13:54 71.1 °F 52.0 °F 30.05 in SW 6.0 mph 16.0 mph 51 % 0.00 in
13:59 71.1 °F 52.0 °F 30.05 in South 9.0 mph 16.0 mph 51 % 0.00 in
14:04 70.9 °F 51.8 °F 30.05 in SSW 6.0 mph 14.0 mph 51 % 0.00 in
14:09 70.5 °F 51.4 °F 30.04 in SW 8.0 mph 14.0 mph 51 % 0.00 in
14:14 70.7 °F 52.2 °F 30.04 in SE 10.0 mph 14.0 mph 52 % 0.00 in
14:19 70.9 °F 52.9 °F 30.04 in ESE 8.0 mph 16.0 mph 53 % 0.00 in
14:24 70.9 °F 52.9 °F 30.04 in SSE 3.0 mph 18.0 mph 53 % 0.00 in
14:29 71.1 °F 53.6 °F 30.03 in SSW 7.0 mph 18.0 mph 54 % 0.00 in
14:34 71.1 °F 53.6 °F 30.03 in SSW 4.0 mph 18.0 mph 54 % 0.00 in
14:39 71.4 °F 54.0 °F 30.03 in SE 4.0 mph 14.0 mph 54 % 0.00 in
14:44 71.8 °F 53.2 °F 30.03 in South 8.0 mph 14.0 mph 52 % 0.00 in
14:49 72.0 °F 53.4 °F 30.02 in South 6.0 mph 11.0 mph 52 % 0.00 in
14:54 72.0 °F 53.4 °F 30.02 in SSE 7.0 mph 13.0 mph 52 % 0.00 in
14:59 72.0 °F 52.9 °F 30.02 in South 6.0 mph 13.0 mph 51 % 0.00 in
15:04 72.0 °F 53.4 °F 30.02 in SW 9.0 mph 13.0 mph 52 % 0.00 in
15:09 72.0 °F 52.9 °F 30.02 in WSW 5.0 mph 12.0 mph 51 % 0.00 in
15:14 72.1 °F 53.1 °F 30.02 in SSW 3.0 mph 12.0 mph 51 % 0.00 in
15:18 72.3 °F 52.2 °F 30.02 in South 6.0 mph 12.0 mph 49 % 0.00 in
15:23 72.0 °F 52.3 °F 30.02 in SSE 6.0 mph 16.0 mph 50 % 0.00 in
15:28 71.8 °F 52.2 °F 30.02 in SSE 11.0 mph 16.0 mph 50 % 0.00 in
15:33 71.6 °F 52.0 °F 30.02 in WSW 2.0 mph 16.0 mph 50 % 0.00 in
15:38 72.0 °F 52.9 °F 30.02 in SSW 8.0 mph 14.0 mph 51 % 0.00 in
15:43 71.8 °F 52.7 °F 30.02 in South 4.0 mph 14.0 mph 51 % 0.00 in
15:48 71.6 °F 53.1 °F 30.02 in SW 7.0 mph 14.0 mph 52 % 0.00 in
15:53 71.4 °F 52.9 °F 30.02 in SSW 5.0 mph 14.0 mph 52 % 0.00 in
15:58 71.4 °F 52.3 °F 30.02 in SW 9.0 mph 14.0 mph 51 % 0.00 in
16:03 71.4 °F 52.9 °F 30.01 in SE 5.0 mph 14.0 mph 52 % 0.00 in
16:08 71.4 °F 52.9 °F 30.02 in SSE 7.0 mph 14.0 mph 52 % 0.00 in
16:13 71.1 °F 52.5 °F 30.02 in SE 4.0 mph 14.0 mph 52 % 0.00 in
16:18 71.1 °F 53.1 °F 30.02 in SSE 10.0 mph 12.0 mph 53 % 0.00 in
16:23 70.7 °F 52.7 °F 30.02 in South 6.0 mph 12.0 mph 53 % 0.00 in
16:28 70.7 °F 52.7 °F 30.02 in South 5.0 mph 13.0 mph 53 % 0.00 in
16:33 70.5 °F 52.5 °F 30.02 in SSW 3.0 mph 13.0 mph 53 % 0.00 in
16:38 70.2 °F 51.8 °F 30.02 in SW 9.0 mph 13.0 mph 52 % 0.00 in
16:43 70.0 °F 52.0 °F 30.02 in South 7.0 mph 14.0 mph 53 % 0.00 in
16:48 69.6 °F 52.2 °F 30.02 in SSW 5.0 mph 14.0 mph 54 % 0.00 in
16:53 69.4 °F 52.5 °F 30.02 in SSW 3.0 mph 14.0 mph 55 % 0.00 in
16:58 69.4 °F 52.5 °F 30.02 in SW 8.0 mph 13.0 mph 55 % 0.00 in
17:03 69.3 °F 52.0 °F 30.02 in SSW 4.0 mph 13.0 mph 54 % 0.00 in
17:08 69.1 °F 51.8 °F 30.02 in SSW 7.0 mph 11.0 mph 54 % 0.00 in
17:13 68.7 °F 52.0 °F 30.01 in SW 7.0 mph 12.0 mph 55 % 0.00 in
17:18 68.5 °F 52.2 °F 30.01 in South 7.0 mph 12.0 mph 56 % 0.00 in
17:23 68.4 °F 52.5 °F 30.01 in SSW 3.0 mph 12.0 mph 57 % 0.00 in
17:28 68.2 °F 52.3 °F 30.01 in SW 5.0 mph 11.0 mph 57 % 0.00 in
17:33 67.8 °F 52.0 °F 30.01 in SSW 3.0 mph 11.0 mph 57 % 0.00 in
17:38 67.5 °F 52.2 °F 30.01 in SSE 3.0 mph 11.0 mph 58 % 0.00 in
17:43 67.1 °F 52.7 °F 30.01 in SSE 4.0 mph 11.0 mph 60 % 0.00 in
17:48 66.9 °F 53.1 °F 30.01 in SE 7.0 mph 11.0 mph 61 % 0.00 in
17:53 66.7 °F 52.9 °F 30.01 in South 4.0 mph 9.0 mph 61 % 0.00 in
17:58 66.4 °F 52.9 °F 30.01 in South 3.0 mph 9.0 mph 62 % 0.00 in
18:03 66.2 °F 53.2 °F 30.01 in South 2.0 mph 8.0 mph 63 % 0.00 in
18:08 65.8 °F 52.9 °F 30.01 in South 4.0 mph 8.0 mph 63 % 0.00 in
18:13 65.7 °F 53.2 °F 30.01 in SSE 1.0 mph 8.0 mph 64 % 0.00 in
18:18 65.3 °F 53.2 °F 30.01 in SSW 4.0 mph 8.0 mph 65 % 0.00 in
18:23 65.1 °F 53.1 °F 30.01 in South 2.0 mph 7.0 mph 65 % 0.00 in
18:28 64.9 °F 52.9 °F 30.02 in SSW 4.0 mph 7.0 mph 65 % 0.00 in
18:33 64.8 °F 53.1 °F 30.01 in South 4.0 mph 7.0 mph 66 % 0.00 in
18:38 64.6 °F 53.4 °F 30.02 in South 3.0 mph 7.0 mph 67 % 0.00 in
18:43 64.4 °F 53.6 °F 30.02 in South 5.0 mph 7.0 mph 68 % 0.00 in
18:48 64.2 °F 53.4 °F 30.02 in SSW 3.0 mph 7.0 mph 68 % 0.00 in
18:53 64.0 °F 53.6 °F 30.02 in SSW 2.0 mph 6.0 mph 69 % 0.00 in
18:58 63.9 °F 53.4 °F 30.02 in SSW 4.0 mph 6.0 mph 69 % 0.00 in
19:03 63.7 °F 53.8 °F 30.02 in SSW 2.0 mph 6.0 mph 70 % 0.00 in
19:08 63.5 °F 53.6 °F 30.02 in SW 4.0 mph 6.0 mph 70 % 0.00 in
19:13 63.3 °F 53.8 °F 30.02 in WSW 3.0 mph 6.0 mph 71 % 0.00 in
19:18 63.1 °F 53.6 °F 30.02 in SSW 2.0 mph 6.0 mph 71 % 0.00 in
19:23 63.1 °F 54.0 °F 30.02 in South 5.0 mph 6.0 mph 72 % 0.00 in
19:28 63.1 °F 54.0 °F 30.01 in SSW 3.0 mph 6.0 mph 72 % 0.00 in
19:33 63.0 °F 53.8 °F 30.02 in SSE 3.0 mph 8.0 mph 72 % 0.00 in
19:38 62.8 °F 53.6 °F 30.02 in SSW 3.0 mph 8.0 mph 72 % 0.00 in
19:43 62.8 °F 54.0 °F 30.02 in SE 3.0 mph 8.0 mph 73 % 0.00 in
19:48 62.6 °F 53.8 °F 30.02 in SSE 8.0 mph 8.0 mph 73 % 0.00 in
19:53 62.6 °F 54.1 °F 30.01 in SSW 4.0 mph 8.0 mph 74 % 0.00 in
19:58 62.4 °F 54.0 °F 30.01 in SSE 4.0 mph 10.0 mph 74 % 0.00 in
20:03 62.4 °F 54.0 °F 30.01 in SSW 3.0 mph 10.0 mph 74 % 0.00 in
20:08 62.2 °F 54.1 °F 30.01 in SE 2.0 mph 10.0 mph 75 % 0.00 in
20:13 62.1 °F 54.0 °F 30.01 in SSW 5.0 mph 7.0 mph 75 % 0.00 in
20:18 61.9 °F 53.8 °F 30.01 in SE 1.0 mph 7.0 mph 75 % 0.00 in
20:23 61.5 °F 54.0 °F 30.01 in SE 6.0 mph 7.0 mph 76 % 0.00 in
20:28 61.3 °F 53.8 °F 30.01 in South 2.0 mph 6.0 mph 76 % 0.00 in
20:33 61.3 °F 54.1 °F 30.01 in SSE 6.0 mph 7.0 mph 77 % 0.00 in
20:38 61.3 °F 54.1 °F 30.01 in SSW 5.0 mph 9.0 mph 77 % 0.00 in
20:43 61.3 °F 54.5 °F 30.00 in South 7.0 mph 11.0 mph 78 % 0.00 in
20:48 61.3 °F 54.5 °F 30.00 in South 6.0 mph 11.0 mph 78 % 0.00 in
20:53 61.2 °F 54.7 °F 30.01 in South 4.0 mph 11.0 mph 79 % 0.00 in
20:58 61.2 °F 54.7 °F 30.00 in SSE 5.0 mph 9.0 mph 79 % 0.00 in
21:03 61.2 °F 54.9 °F 30.00 in SSE 3.0 mph 12.0 mph 80 % 0.00 in
21:08 61.2 °F 54.9 °F 30.00 in SE 5.0 mph 12.0 mph 80 % 0.00 in
21:13 61.0 °F 55.0 °F 30.00 in South 6.0 mph 12.0 mph 81 % 0.00 in
21:18 61.0 °F 55.4 °F 30.00 in South 4.0 mph 9.0 mph 82 % 0.00 in
21:23 61.0 °F 55.4 °F 30.00 in SSE 3.0 mph 9.0 mph 82 % 0.00 in
21:28 61.0 °F 55.4 °F 29.99 in SSE 5.0 mph 9.0 mph 82 % 0.00 in
21:33 61.0 °F 55.4 °F 29.99 in SSE 4.0 mph 9.0 mph 82 % 0.00 in
21:38 60.8 °F 55.6 °F 29.99 in SW 9.0 mph 9.0 mph 83 % 0.00 in
21:43 60.8 °F 55.6 °F 29.99 in South 2.0 mph 9.0 mph 83 % 0.00 in
21:48 60.6 °F 55.4 °F 29.99 in South 7.0 mph 11.0 mph 83 % 0.00 in
21:53 60.6 °F 55.8 °F 29.99 in South 5.0 mph 11.0 mph 84 % 0.00 in
21:58 60.6 °F 55.8 °F 29.99 in South 4.0 mph 11.0 mph 84 % 0.00 in
22:03 60.6 °F 55.8 °F 29.99 in SW 10.0 mph 11.0 mph 84 % 0.00 in
22:08 60.4 °F 55.6 °F 29.99 in SE 5.0 mph 12.0 mph 84 % 0.00 in
22:13 60.4 °F 55.6 °F 29.98 in South 12.0 mph 12.0 mph 84 % 0.00 in
22:18 60.4 °F 55.9 °F 29.98 in SSW 5.0 mph 12.0 mph 85 % 0.00 in
22:23 60.4 °F 55.9 °F 29.98 in SSE 5.0 mph 12.0 mph 85 % 0.00 in
22:28 60.3 °F 55.8 °F 29.98 in South 6.0 mph 12.0 mph 85 % 0.00 in
22:33 60.3 °F 56.1 °F 29.98 in SSW 3.0 mph 11.0 mph 86 % 0.00 in
22:39 60.3 °F 56.1 °F 29.98 in South 7.0 mph 11.0 mph 86 % 0.00 in
22:44 60.1 °F 55.9 °F 29.98 in SSW 7.0 mph 11.0 mph 86 % 0.00 in
22:49 60.1 °F 55.9 °F 29.98 in SSE 4.0 mph 9.0 mph 86 % 0.00 in
22:53 59.9 °F 55.9 °F 29.98 in South 4.0 mph 9.0 mph 87 % 0.00 in
22:59 59.9 °F 55.9 °F 29.98 in SW 5.0 mph 9.0 mph 87 % 0.00 in
23:04 59.9 °F 55.9 °F 29.98 in SW 3.0 mph 9.0 mph 87 % 0.00 in
23:09 59.7 °F 56.1 °F 29.98 in South 4.0 mph 9.0 mph 88 % 0.00 in
23:14 59.7 °F 56.1 °F 29.97 in SSW 8.0 mph 9.0 mph 88 % 0.00 in
23:19 59.7 °F 56.1 °F 29.97 in SSW 4.0 mph 9.0 mph 88 % 0.00 in
23:24 59.7 °F 56.1 °F 29.97 in South 4.0 mph 14.0 mph 88 % 0.00 in
23:29 59.7 °F 56.1 °F 29.97 in SSW 6.0 mph 14.0 mph 88 % 0.00 in
23:34 59.7 °F 56.1 °F 29.97 in ESE 7.0 mph 14.0 mph 88 % 0.00 in
23:39 59.7 °F 56.1 °F 29.97 in SSW 3.0 mph 9.0 mph 88 % 0.00 in
23:44 59.7 °F 56.1 °F 29.97 in SSE 4.0 mph 10.0 mph 88 % 0.00 in
23:49 59.7 °F 56.1 °F 29.97 in SW 6.0 mph 13.0 mph 88 % 0.00 in
23:54 59.7 °F 56.1 °F 29.97 in South 4.0 mph 14.0 mph 88 % 0.00 in
23:59 59.7 °F 56.1 °F 29.97 in SW 4.0 mph 14.0 mph 88 % 0.00 in
Spring, Texas: Villages of Bridgestone
Compliments of Weather Underground - 2.75 mb

Script developed by  Jim McMurry - jmcmurry@mwt.net Adapted for the template by  Wim van der Kuil - Leuven-Template.eu

You find our weather info also at:

UK Metoffice

WeatherCloud

Weather Underground

Mid-South Weather Network

AWEKAS

Citizen Weather Observer Program (CWOP)

HAMweather, WeatherForYou, PWS Weather

Equipment we use:

Weather-station
Davis Vantage Vue

Weather-program
Meteohub

Weather-server
Debian 7.9 x86 (Guest)

Provider
DreamHost

Davis Vantage Vue

Meteohub

Debian 7.9 x86 (Guest)

DreamHost